This demonstration page uses our WeatherBlox Daily Observations layout. Learn more.

Left ArrowRight Arrow

36.17497, -115.13722

Hourly Observations for January 22, 2019

Temp ( °F °C ) Dew Point ( °F °C ) Humidity (%) Winds ( mph kmh ) Pressure ( in mb ) Visibility ( mi km ) Precip ( " mm )
12:53 am 00:53 Clear 45 7.2 16 -8.9 31 31 NNW 25 41 30.2 1023 10 16.0934 0 0
1:53 am 01:53 Clear 44 6.7 15 -9.4 31 31 NNW 21 33 30.23 1024 10 16.0934 0 0
2:53 am 02:53 Clear 44 6.7 15 -9.4 31 31 NNW 21 33 30.25 1024 10 16.0934 0 0
3:53 am 03:53 Clear 42 5.6 15 -9.4 33 33 NNW 22 35 30.26 1025 10 16.0934 0 0
4:53 am 04:53 Clear 42 5.6 15 -9.4 33 33 NNW 21 33 30.28 1025 10 16.0934 0 0
5:53 am 05:53 Clear 42 5.6 14 -10 32 32 NNW 22 35 30.3 1026 10 16.0934 0 0
6:53 am 06:53 Sunny 42 5.6 14 -10 32 32 NNW 22 35 30.33 1027 10 16.0934 0 0
7:53 am 07:53 Sunny 42 5.6 14 -10 32 32 N 20 31 30.37 1029 10 16.0934 0 0
8:53 am 08:53 Sunny 44 6.7 14 -10 30 30 N 15 24 30.42 1030 10 16.0934 0 0
9:53 am 09:53 Sunny 46 7.8 13 -10.6 26 26 NNW 16 26 30.44 1031 10 16.0934 0 0
10:53 am 10:53 Sunny 48 8.9 11 -11.7 22 22 N 21 33 30.43 1031 10 16.0934 0 0
11:53 am 11:53 Sunny 49 9.4 9 -12.8 20 20 NNW 17 28 30.42 1030 10 16.0934 0 0
12:53 pm 12:53 Sunny 50 10 9 -12.8 19 19 NNW 28 44 30.4 1029 10 16.0934 0 0
1:53 pm 13:53 Sunny 51 10.6 9 -12.8 18 18 NNW 16 26 30.4 1029 10 16.0934 0 0
2:53 pm 14:53 Sunny 51 10.6 8 -13.3 17 17 N 23 37 30.4 1029 10 16.0934 0 0
3:53 pm 15:53 Sunny 51 10.6 7 -13.9 17 17 NNW 20 31 30.41 1030 10 16.0934 0 0
4:53 pm 16:53 Sunny 49 9.4 8 -13.3 19 19 NNW 12 19 30.42 1030 10 16.0934 0 0
5:53 pm 17:53 Clear 48 8.9 9 -12.8 20 20 N 12 19 30.45 1031 10 16.0934 0 0
6:53 pm 18:53 Clear 46 7.8 11 -11.7 24 24 NNW 12 19 30.46 1032 10 16.0934 0 0
7:53 pm 19:53 Clear 46 7.8 10 -12.2 23 23 N 14 22 30.48 1032 10 16.0934 0 0
8:53 pm 20:53 Clear 45 7.2 11 -11.7 25 25 N 12 19 30.49 1033 10 16.0934 0 0
9:53 pm 21:53 Clear 44 6.7 13 -10.6 28 28 N 9 15 30.48 1032 10 16.0934 0 0
10:53 pm 22:53 Clear 43 6.1 13 -10.6 29 29 N 13 20 30.48 1032 10 16.0934 0 0
11:53 pm 23:53 Clear 41 5 14 -10 33 33 NNE 5 7 30.5 1033 10 16.0934 0 0

Powered by AerisWeather